sensor_id;sensor_type;location;lat;lon;timestamp;P1;durP1;ratioP1;P2;durP2;ratioP2
26034;SDS011;13809;48.632;11.576;2022-11-21T00:03:35;0.90;;;0.90;;
26034;SDS011;13809;48.632;11.576;2022-11-21T00:08:38;1.00;;;1.00;;
26034;SDS011;13809;48.632;11.576;2022-11-21T00:13:43;0.90;;;0.90;;
26034;SDS011;13809;48.632;11.576;2022-11-21T00:18:46;1.00;;;1.00;;
26034;SDS011;13809;48.632;11.576;2022-11-21T00:23:50;1.03;;;1.03;;
26034;SDS011;13809;48.632;11.576;2022-11-21T00:28:55;1.10;;;1.10;;
26034;SDS011;13809;48.632;11.576;2022-11-21T00:33:58;0.97;;;0.97;;
26034;SDS011;13809;48.632;11.576;2022-11-21T00:39:01;0.80;;;0.80;;
26034;SDS011;13809;48.632;11.576;2022-11-21T00:44:06;0.90;;;0.90;;
26034;SDS011;13809;48.632;11.576;2022-11-21T00:49:09;1.10;;;1.10;;
26034;SDS011;13809;48.632;11.576;2022-11-21T00:54:12;0.90;;;0.90;;
26034;SDS011;13809;48.632;11.576;2022-11-21T00:59:17;1.10;;;1.10;;
26034;SDS011;13809;48.632;11.576;2022-11-21T01:04:20;0.83;;;0.83;;
26034;SDS011;13809;48.632;11.576;2022-11-21T01:09:23;1.00;;;1.00;;
26034;SDS011;13809;48.632;11.576;2022-11-21T01:14:28;1.00;;;1.00;;
26034;SDS011;13809;48.632;11.576;2022-11-21T01:19:31;1.10;;;1.00;;
26034;SDS011;13809;48.632;11.576;2022-11-21T01:24:34;0.90;;;0.90;;
26034;SDS011;13809;48.632;11.576;2022-11-21T01:29:40;1.00;;;1.00;;
26034;SDS011;13809;48.632;11.576;2022-11-21T01:34:43;0.83;;;0.83;;
26034;SDS011;13809;48.632;11.576;2022-11-21T01:39:46;0.80;;;0.80;;
26034;SDS011;13809;48.632;11.576;2022-11-21T01:44:51;0.70;;;0.70;;
26034;SDS011;13809;48.632;11.576;2022-11-21T01:49:55;1.27;;;0.80;;
26034;SDS011;13809;48.632;11.576;2022-11-21T01:54:59;1.03;;;0.80;;
26034;SDS011;13809;48.632;11.576;2022-11-21T02:00:09;0.80;;;0.80;;
26034;SDS011;13809;48.632;11.576;2022-11-21T02:05:18;0.80;;;0.80;;
26034;SDS011;13809;48.632;11.576;2022-11-21T02:10:23;1.33;;;0.87;;
26034;SDS011;13809;48.632;11.576;2022-11-21T02:15:28;0.90;;;0.80;;
26034;SDS011;13809;48.632;11.576;2022-11-21T02:20:31;1.07;;;0.70;;
26034;SDS011;13809;48.632;11.576;2022-11-21T02:25:36;0.67;;;0.67;;
26034;SDS011;13809;48.632;11.576;2022-11-21T02:30:42;0.77;;;0.77;;
26034;SDS011;13809;48.632;11.576;2022-11-21T02:35:54;1.17;;;0.80;;
26034;SDS011;13809;48.632;11.576;2022-11-21T02:41:01;0.70;;;0.70;;
26034;SDS011;13809;48.632;11.576;2022-11-21T02:46:11;1.00;;;0.60;;
26034;SDS011;13809;48.632;11.576;2022-11-21T02:51:14;1.10;;;0.83;;
26034;SDS011;13809;48.632;11.576;2022-11-21T02:56:18;0.80;;;0.80;;
26034;SDS011;13809;48.632;11.576;2022-11-21T03:01:22;0.77;;;0.77;;
26034;SDS011;13809;48.632;11.576;2022-11-21T03:06:25;0.60;;;0.60;;
26034;SDS011;13809;48.632;11.576;2022-11-21T03:11:29;0.60;;;0.60;;
26034;SDS011;13809;48.632;11.576;2022-11-21T03:16:32;1.23;;;0.80;;
26034;SDS011;13809;48.632;11.576;2022-11-21T03:21:35;0.70;;;0.70;;
26034;SDS011;13809;48.632;11.576;2022-11-21T03:26:40;0.70;;;0.70;;
26034;SDS011;13809;48.632;11.576;2022-11-21T03:31:43;0.60;;;0.60;;
26034;SDS011;13809;48.632;11.576;2022-11-21T03:36:46;1.20;;;0.90;;
26034;SDS011;13809;48.632;11.576;2022-11-21T03:41:51;0.80;;;0.80;;
26034;SDS011;13809;48.632;11.576;2022-11-21T03:46:54;1.10;;;0.80;;
26034;SDS011;13809;48.632;11.576;2022-11-21T03:51:57;0.70;;;0.70;;
26034;SDS011;13809;48.632;11.576;2022-11-21T03:57:01;0.80;;;0.80;;
26034;SDS011;13809;48.632;11.576;2022-11-21T04:02:04;1.40;;;1.30;;
26034;SDS011;13809;48.632;11.576;2022-11-21T04:07:08;1.03;;;0.80;;
26034;SDS011;13809;48.632;11.576;2022-11-21T04:12:12;1.23;;;1.00;;
26034;SDS011;13809;48.632;11.576;2022-11-21T04:17:15;2.57;;;1.57;;
26034;SDS011;13809;48.632;11.576;2022-11-21T04:22:18;3.13;;;1.90;;
26034;SDS011;13809;48.632;11.576;2022-11-21T04:27:23;3.60;;;2.07;;
26034;SDS011;13809;48.632;11.576;2022-11-21T04:32:26;2.40;;;1.50;;
26034;SDS011;13809;48.632;11.576;2022-11-21T04:37:29;1.60;;;1.20;;
26034;SDS011;13809;48.632;11.576;2022-11-21T04:42:33;2.70;;;1.33;;
26034;SDS011;13809;48.632;11.576;2022-11-21T04:47:37;1.93;;;1.77;;
26034;SDS011;13809;48.632;11.576;2022-11-21T04:52:40;1.90;;;1.00;;
26034;SDS011;13809;48.632;11.576;2022-11-21T04:57:45;1.83;;;1.10;;
26034;SDS011;13809;48.632;11.576;2022-11-21T05:02:48;1.00;;;0.90;;
26034;SDS011;13809;48.632;11.576;2022-11-21T05:07:51;0.93;;;0.80;;
26034;SDS011;13809;48.632;11.576;2022-11-21T05:12:56;1.30;;;0.87;;
26034;SDS011;13809;48.632;11.576;2022-11-21T05:18:18;1.10;;;1.00;;
26034;SDS011;13809;48.632;11.576;2022-11-21T05:23:21;0.80;;;0.80;;
26034;SDS011;13809;48.632;11.576;2022-11-21T05:28:26;1.70;;;1.60;;
26034;SDS011;13809;48.632;11.576;2022-11-21T05:33:29;1.07;;;0.90;;
26034;SDS011;13809;48.632;11.576;2022-11-21T05:38:32;0.90;;;0.90;;
26034;SDS011;13809;48.632;11.576;2022-11-21T05:43:36;0.77;;;0.77;;
26034;SDS011;13809;48.632;11.576;2022-11-21T05:48:49;1.10;;;1.00;;
26034;SDS011;13809;48.632;11.576;2022-11-21T05:53:53;0.80;;;0.80;;
26034;SDS011;13809;48.632;11.576;2022-11-21T05:58:58;0.90;;;0.90;;
26034;SDS011;13809;48.632;11.576;2022-11-21T06:04:01;0.80;;;0.80;;
26034;SDS011;13809;48.632;11.576;2022-11-21T06:09:04;1.20;;;1.10;;
26034;SDS011;13809;48.632;11.576;2022-11-21T06:14:08;1.20;;;1.00;;
26034;SDS011;13809;48.632;11.576;2022-11-21T06:19:12;1.47;;;1.17;;
26034;SDS011;13809;48.632;11.576;2022-11-21T06:24:15;1.67;;;1.30;;
26034;SDS011;13809;48.632;11.576;2022-11-21T06:29:24;1.63;;;1.20;;
26034;SDS011;13809;48.632;11.576;2022-11-21T06:34:27;1.40;;;1.20;;
26034;SDS011;13809;48.632;11.576;2022-11-21T06:39:30;1.40;;;1.30;;
26034;SDS011;13809;48.632;11.576;2022-11-21T06:44:35;3.63;;;2.17;;
26034;SDS011;13809;48.632;11.576;2022-11-21T06:49:38;1.47;;;1.37;;
26034;SDS011;13809;48.632;11.576;2022-11-21T06:54:41;1.07;;;1.07;;
26034;SDS011;13809;48.632;11.576;2022-11-21T06:59:46;1.30;;;1.20;;
26034;SDS011;13809;48.632;11.576;2022-11-21T07:04:49;1.77;;;1.20;;
26034;SDS011;13809;48.632;11.576;2022-11-21T07:09:52;1.43;;;1.33;;
26034;SDS011;13809;48.632;11.576;2022-11-21T07:14:56;1.57;;;1.30;;
26034;SDS011;13809;48.632;11.576;2022-11-21T07:20:00;1.77;;;1.13;;
26034;SDS011;13809;48.632;11.576;2022-11-21T07:25:03;1.87;;;1.23;;
26034;SDS011;13809;48.632;11.576;2022-11-21T07:30:09;1.50;;;1.30;;
26034;SDS011;13809;48.632;11.576;2022-11-21T07:35:13;1.30;;;1.20;;
26034;SDS011;13809;48.632;11.576;2022-11-21T07:40:16;1.30;;;1.13;;
26034;SDS011;13809;48.632;11.576;2022-11-21T07:45:21;1.53;;;1.00;;
26034;SDS011;13809;48.632;11.576;2022-11-21T07:50:25;1.10;;;1.00;;
26034;SDS011;13809;48.632;11.576;2022-11-21T07:55:29;1.40;;;1.07;;
26034;SDS011;13809;48.632;11.576;2022-11-21T08:00:41;1.27;;;1.23;;
26034;SDS011;13809;48.632;11.576;2022-11-21T08:05:45;1.50;;;1.10;;
26034;SDS011;13809;48.632;11.576;2022-11-21T08:10:48;1.47;;;1.30;;
26034;SDS011;13809;48.632;11.576;2022-11-21T08:15:53;3.53;;;2.40;;
26034;SDS011;13809;48.632;11.576;2022-11-21T08:20:56;1.17;;;1.07;;
26034;SDS011;13809;48.632;11.576;2022-11-21T08:26:02;1.73;;;1.63;;
26034;SDS011;13809;48.632;11.576;2022-11-21T08:31:07;2.43;;;1.10;;
26034;SDS011;13809;48.632;11.576;2022-11-21T08:36:10;1.80;;;1.50;;
26034;SDS011;13809;48.632;11.576;2022-11-21T08:41:13;1.73;;;1.50;;
26034;SDS011;13809;48.632;11.576;2022-11-21T08:46:35;4.43;;;2.13;;
26034;SDS011;13809;48.632;11.576;2022-11-21T08:51:38;1.40;;;1.30;;
26034;SDS011;13809;48.632;11.576;2022-11-21T08:56:42;1.20;;;1.10;;
26034;SDS011;13809;48.632;11.576;2022-11-21T09:01:47;1.60;;;1.50;;
26034;SDS011;13809;48.632;11.576;2022-11-21T09:06:53;1.43;;;1.17;;
26034;SDS011;13809;48.632;11.576;2022-11-21T09:11:56;1.83;;;1.57;;
26034;SDS011;13809;48.632;11.576;2022-11-21T09:17:01;1.00;;;1.00;;
26034;SDS011;13809;48.632;11.576;2022-11-21T09:22:22;0.90;;;0.90;;
26034;SDS011;13809;48.632;11.576;2022-11-21T09:27:25;1.70;;;1.00;;
26034;SDS011;13809;48.632;11.576;2022-11-21T09:32:30;1.50;;;1.00;;
26034;SDS011;13809;48.632;11.576;2022-11-21T09:37:35;1.13;;;0.90;;
26034;SDS011;13809;48.632;11.576;2022-11-21T09:42:46;2.00;;;1.20;;
26034;SDS011;13809;48.632;11.576;2022-11-21T09:48:00;1.53;;;1.43;;
26034;SDS011;13809;48.632;11.576;2022-11-21T09:53:10;1.03;;;0.93;;
26034;SDS011;13809;48.632;11.576;2022-11-21T09:58:23;1.30;;;0.97;;
26034;SDS011;13809;48.632;11.576;2022-11-21T10:03:35;1.30;;;0.90;;
26034;SDS011;13809;48.632;11.576;2022-11-21T10:08:46;1.23;;;1.10;;
26034;SDS011;13809;48.632;11.576;2022-11-21T10:14:02;1.50;;;1.00;;
26034;SDS011;13809;48.632;11.576;2022-11-21T10:19:20;2.40;;;1.10;;
26034;SDS011;13809;48.632;11.576;2022-11-21T10:24:43;1.60;;;1.20;;
26034;SDS011;13809;48.632;11.576;2022-11-21T10:29:54;2.10;;;0.90;;
26034;SDS011;13809;48.632;11.576;2022-11-21T10:35:03;2.33;;;1.23;;
26034;SDS011;13809;48.632;11.576;2022-11-21T10:40:23;3.33;;;1.10;;
26034;SDS011;13809;48.632;11.576;2022-11-21T10:45:33;1.73;;;1.50;;
26034;SDS011;13809;48.632;11.576;2022-11-21T10:50:45;1.87;;;1.57;;
26034;SDS011;13809;48.632;11.576;2022-11-21T10:56:01;1.90;;;1.10;;
26034;SDS011;13809;48.632;11.576;2022-11-21T11:01:17;2.20;;;1.30;;
26034;SDS011;13809;48.632;11.576;2022-11-21T11:06:27;2.27;;;1.90;;
26034;SDS011;13809;48.632;11.576;2022-11-21T11:11:36;4.43;;;2.53;;
26034;SDS011;13809;48.632;11.576;2022-11-21T11:16:41;1.90;;;1.70;;
26034;SDS011;13809;48.632;11.576;2022-11-21T11:26:58;2.60;;;2.03;;
26034;SDS011;13809;48.632;11.576;2022-11-21T11:32:04;3.10;;;1.90;;
26034;SDS011;13809;48.632;11.576;2022-11-21T11:37:24;2.97;;;1.40;;
26034;SDS011;13809;48.632;11.576;2022-11-21T11:42:55;2.43;;;1.63;;
26034;SDS011;13809;48.632;11.576;2022-11-21T11:48:31;2.00;;;1.30;;
26034;SDS011;13809;48.632;11.576;2022-11-21T11:53:59;2.37;;;1.23;;
26034;SDS011;13809;48.632;11.576;2022-11-21T11:59:10;2.73;;;1.60;;
26034;SDS011;13809;48.632;11.576;2022-11-21T12:04:18;2.50;;;1.73;;
26034;SDS011;13809;48.632;11.576;2022-11-21T12:09:26;4.20;;;1.67;;
26034;SDS011;13809;48.632;11.576;2022-11-21T12:14:43;6.73;;;1.70;;
26034;SDS011;13809;48.632;11.576;2022-11-21T12:20:20;4.57;;;2.00;;
26034;SDS011;13809;48.632;11.576;2022-11-21T12:25:29;4.37;;;2.00;;
26034;SDS011;13809;48.632;11.576;2022-11-21T12:30:46;2.70;;;1.50;;
26034;SDS011;13809;48.632;11.576;2022-11-21T12:36:07;3.67;;;1.40;;
26034;SDS011;13809;48.632;11.576;2022-11-21T12:41:22;1.40;;;0.90;;
26034;SDS011;13809;48.632;11.576;2022-11-21T12:46:53;1.43;;;1.20;;
26034;SDS011;13809;48.632;11.576;2022-11-21T12:52:11;2.60;;;1.40;;
26034;SDS011;13809;48.632;11.576;2022-11-21T12:58:10;2.03;;;1.23;;
26034;SDS011;13809;48.632;11.576;2022-11-21T13:08:59;1.80;;;0.90;;
26034;SDS011;13809;48.632;11.576;2022-11-21T13:14:06;2.13;;;1.00;;
26034;SDS011;13809;48.632;11.576;2022-11-21T13:19:16;1.63;;;1.00;;
26034;SDS011;13809;48.632;11.576;2022-11-21T13:41:08;2.23;;;0.93;;
26034;SDS011;13809;48.632;11.576;2022-11-21T13:52:00;1.13;;;1.00;;
26034;SDS011;13809;48.632;11.576;2022-11-21T13:57:17;2.20;;;1.10;;
26034;SDS011;13809;48.632;11.576;2022-11-21T14:02:54;1.77;;;1.10;;
26034;SDS011;13809;48.632;11.576;2022-11-21T14:08:27;2.90;;;1.30;;
26034;SDS011;13809;48.632;11.576;2022-11-21T14:13:31;3.07;;;1.70;;
26034;SDS011;13809;48.632;11.576;2022-11-21T14:18:40;4.63;;;1.67;;
26034;SDS011;13809;48.632;11.576;2022-11-21T14:23:45;2.90;;;2.10;;
26034;SDS011;13809;48.632;11.576;2022-11-21T14:28:50;9.27;;;2.67;;
26034;SDS011;13809;48.632;11.576;2022-11-21T14:33:58;3.63;;;2.17;;
26034;SDS011;13809;48.632;11.576;2022-11-21T14:39:04;18.37;;;3.00;;
26034;SDS011;13809;48.632;11.576;2022-11-21T14:44:29;140.43;;;10.10;;
26034;SDS011;13809;48.632;11.576;2022-11-21T14:49:34;45.67;;;5.10;;
26034;SDS011;13809;48.632;11.576;2022-11-21T14:54:38;14.03;;;3.57;;
26034;SDS011;13809;48.632;11.576;2022-11-21T15:00:07;6.23;;;3.17;;
26034;SDS011;13809;48.632;11.576;2022-11-21T15:05:34;4.53;;;2.90;;
26034;SDS011;13809;48.632;11.576;2022-11-21T15:10:57;3.50;;;1.97;;
26034;SDS011;13809;48.632;11.576;2022-11-21T15:16:02;8.33;;;2.00;;
26034;SDS011;13809;48.632;11.576;2022-11-21T15:21:10;2.80;;;2.60;;
26034;SDS011;13809;48.632;11.576;2022-11-21T15:26:27;2.53;;;1.80;;
26034;SDS011;13809;48.632;11.576;2022-11-21T15:31:32;2.93;;;1.30;;
26034;SDS011;13809;48.632;11.576;2022-11-21T15:36:36;2.23;;;1.30;;
26034;SDS011;13809;48.632;11.576;2022-11-21T15:41:39;1.67;;;1.50;;
26034;SDS011;13809;48.632;11.576;2022-11-21T15:46:42;5.80;;;5.13;;
26034;SDS011;13809;48.632;11.576;2022-11-21T15:51:49;6.30;;;4.00;;
26034;SDS011;13809;48.632;11.576;2022-11-21T15:57:07;5.43;;;3.50;;
26034;SDS011;13809;48.632;11.576;2022-11-21T16:02:11;4.80;;;3.43;;
26034;SDS011;13809;48.632;11.576;2022-11-21T16:07:16;5.03;;;4.13;;
26034;SDS011;13809;48.632;11.576;2022-11-21T16:12:19;5.57;;;4.37;;
26034;SDS011;13809;48.632;11.576;2022-11-21T16:17:22;5.00;;;4.50;;
26034;SDS011;13809;48.632;11.576;2022-11-21T16:22:27;5.00;;;4.43;;
26034;SDS011;13809;48.632;11.576;2022-11-21T16:27:30;4.73;;;4.33;;
26034;SDS011;13809;48.632;11.576;2022-11-21T16:32:33;4.97;;;4.23;;
26034;SDS011;13809;48.632;11.576;2022-11-21T16:37:38;3.97;;;3.63;;
26034;SDS011;13809;48.632;11.576;2022-11-21T16:42:41;5.80;;;4.87;;
26034;SDS011;13809;48.632;11.576;2022-11-21T16:47:44;6.37;;;5.60;;
26034;SDS011;13809;48.632;11.576;2022-11-21T16:52:50;5.37;;;4.87;;
26034;SDS011;13809;48.632;11.576;2022-11-21T16:57:54;5.33;;;4.93;;
26034;SDS011;13809;48.632;11.576;2022-11-21T17:02:58;5.90;;;5.40;;
26034;SDS011;13809;48.632;11.576;2022-11-21T17:08:03;5.63;;;4.77;;
26034;SDS011;13809;48.632;11.576;2022-11-21T17:13:07;7.97;;;5.80;;
26034;SDS011;13809;48.632;11.576;2022-11-21T17:18:10;8.10;;;6.43;;
26034;SDS011;13809;48.632;11.576;2022-11-21T17:23:15;6.87;;;6.17;;
26034;SDS011;13809;48.632;11.576;2022-11-21T17:28:18;9.20;;;8.30;;
26034;SDS011;13809;48.632;11.576;2022-11-21T17:33:21;9.03;;;8.13;;
26034;SDS011;13809;48.632;11.576;2022-11-21T17:38:26;8.57;;;7.40;;
26034;SDS011;13809;48.632;11.576;2022-11-21T17:43:29;9.40;;;6.60;;
26034;SDS011;13809;48.632;11.576;2022-11-21T17:48:33;7.23;;;6.33;;
26034;SDS011;13809;48.632;11.576;2022-11-21T17:53:39;9.20;;;7.00;;
26034;SDS011;13809;48.632;11.576;2022-11-21T17:58:43;9.30;;;8.17;;
26034;SDS011;13809;48.632;11.576;2022-11-21T18:03:47;9.70;;;8.73;;
26034;SDS011;13809;48.632;11.576;2022-11-21T18:08:57;7.77;;;7.03;;
26034;SDS011;13809;48.632;11.576;2022-11-21T18:14:00;9.27;;;8.37;;
26034;SDS011;13809;48.632;11.576;2022-11-21T18:19:04;10.87;;;8.03;;
26034;SDS011;13809;48.632;11.576;2022-11-21T18:24:09;9.50;;;6.97;;
26034;SDS011;13809;48.632;11.576;2022-11-21T18:29:12;9.10;;;8.17;;
26034;SDS011;13809;48.632;11.576;2022-11-21T18:34:35;6.40;;;5.83;;
26034;SDS011;13809;48.632;11.576;2022-11-21T18:39:40;6.90;;;6.20;;
26034;SDS011;13809;48.632;11.576;2022-11-21T18:44:43;6.47;;;5.80;;
26034;SDS011;13809;48.632;11.576;2022-11-21T18:49:47;5.50;;;5.00;;
26034;SDS011;13809;48.632;11.576;2022-11-21T18:54:51;6.83;;;5.93;;
26034;SDS011;13809;48.632;11.576;2022-11-21T18:59:55;7.20;;;6.33;;
26034;SDS011;13809;48.632;11.576;2022-11-21T19:04:58;7.97;;;6.63;;
26034;SDS011;13809;48.632;11.576;2022-11-21T19:10:02;5.90;;;5.07;;
26034;SDS011;13809;48.632;11.576;2022-11-21T19:15:26;4.57;;;3.80;;
26034;SDS011;13809;48.632;11.576;2022-11-21T19:20:29;5.00;;;4.50;;
26034;SDS011;13809;48.632;11.576;2022-11-21T19:25:36;5.17;;;4.67;;
26034;SDS011;13809;48.632;11.576;2022-11-21T19:30:39;5.97;;;5.10;;
26034;SDS011;13809;48.632;11.576;2022-11-21T19:35:42;5.57;;;4.93;;
26034;SDS011;13809;48.632;11.576;2022-11-21T19:40:47;5.37;;;4.60;;
26034;SDS011;13809;48.632;11.576;2022-11-21T19:46:07;4.63;;;4.20;;
26034;SDS011;13809;48.632;11.576;2022-11-21T19:51:11;5.30;;;4.67;;
26034;SDS011;13809;48.632;11.576;2022-11-21T19:56:16;5.43;;;4.30;;
26034;SDS011;13809;48.632;11.576;2022-11-21T20:01:20;5.20;;;4.70;;
26034;SDS011;13809;48.632;11.576;2022-11-21T20:06:25;6.57;;;5.23;;
26034;SDS011;13809;48.632;11.576;2022-11-21T20:11:32;6.30;;;5.63;;
26034;SDS011;13809;48.632;11.576;2022-11-21T20:16:36;5.70;;;5.20;;
26034;SDS011;13809;48.632;11.576;2022-11-21T20:21:41;5.27;;;4.77;;
26034;SDS011;13809;48.632;11.576;2022-11-21T20:26:46;6.27;;;5.07;;
26034;SDS011;13809;48.632;11.576;2022-11-21T20:31:49;7.97;;;4.70;;
26034;SDS011;13809;48.632;11.576;2022-11-21T20:36:52;4.33;;;3.93;;
26034;SDS011;13809;48.632;11.576;2022-11-21T20:41:57;5.00;;;3.93;;
26034;SDS011;13809;48.632;11.576;2022-11-21T20:47:00;3.27;;;2.87;;
26034;SDS011;13809;48.632;11.576;2022-11-21T20:52:04;3.30;;;2.97;;
26034;SDS011;13809;48.632;11.576;2022-11-21T20:57:28;3.60;;;2.87;;
26034;SDS011;13809;48.632;11.576;2022-11-21T21:02:31;3.23;;;2.50;;
26034;SDS011;13809;48.632;11.576;2022-11-21T21:07:35;4.23;;;3.47;;
26034;SDS011;13809;48.632;11.576;2022-11-21T21:12:39;2.90;;;2.60;;
26034;SDS011;13809;48.632;11.576;2022-11-21T21:17:48;3.57;;;2.70;;
26034;SDS011;13809;48.632;11.576;2022-11-21T21:22:52;2.87;;;2.67;;
26034;SDS011;13809;48.632;11.576;2022-11-21T21:27:58;4.00;;;3.60;;
26034;SDS011;13809;48.632;11.576;2022-11-21T21:33:01;3.80;;;3.40;;
26034;SDS011;13809;48.632;11.576;2022-11-21T21:38:05;3.17;;;2.83;;
26034;SDS011;13809;48.632;11.576;2022-11-21T21:43:10;3.23;;;2.93;;
26034;SDS011;13809;48.632;11.576;2022-11-21T21:48:14;2.57;;;2.37;;
26034;SDS011;13809;48.632;11.576;2022-11-21T21:53:17;3.10;;;2.60;;
26034;SDS011;13809;48.632;11.576;2022-11-21T21:58:21;3.30;;;2.67;;
26034;SDS011;13809;48.632;11.576;2022-11-21T22:03:24;5.03;;;4.63;;
26034;SDS011;13809;48.632;11.576;2022-11-21T22:08:28;3.57;;;2.90;;
26034;SDS011;13809;48.632;11.576;2022-11-21T22:13:34;2.57;;;2.37;;
26034;SDS011;13809;48.632;11.576;2022-11-21T22:18:38;2.10;;;2.00;;
26034;SDS011;13809;48.632;11.576;2022-11-21T22:23:42;2.27;;;2.17;;
26034;SDS011;13809;48.632;11.576;2022-11-21T22:29:07;2.20;;;2.00;;
26034;SDS011;13809;48.632;11.576;2022-11-21T22:34:11;1.80;;;1.70;;
26034;SDS011;13809;48.632;11.576;2022-11-21T22:39:14;2.40;;;1.57;;
26034;SDS011;13809;48.632;11.576;2022-11-21T22:44:19;2.23;;;1.93;;
26034;SDS011;13809;48.632;11.576;2022-11-21T22:49:23;7.13;;;5.60;;
26034;SDS011;13809;48.632;11.576;2022-11-21T22:54:26;4.77;;;4.07;;
26034;SDS011;13809;48.632;11.576;2022-11-21T22:59:30;2.60;;;2.40;;
26034;SDS011;13809;48.632;11.576;2022-11-21T23:04:34;2.00;;;1.80;;
26034;SDS011;13809;48.632;11.576;2022-11-21T23:09:37;2.27;;;1.90;;
26034;SDS011;13809;48.632;11.576;2022-11-21T23:14:41;1.87;;;1.53;;
26034;SDS011;13809;48.632;11.576;2022-11-21T23:19:44;1.73;;;1.63;;
26034;SDS011;13809;48.632;11.576;2022-11-21T23:24:47;2.20;;;1.80;;
26034;SDS011;13809;48.632;11.576;2022-11-21T23:29:52;2.70;;;1.67;;
26034;SDS011;13809;48.632;11.576;2022-11-21T23:34:55;2.00;;;1.80;;
26034;SDS011;13809;48.632;11.576;2022-11-21T23:39:58;1.33;;;1.23;;
26034;SDS011;13809;48.632;11.576;2022-11-21T23:45:03;2.00;;;1.47;;
26034;SDS011;13809;48.632;11.576;2022-11-21T23:50:07;1.47;;;1.37;;
26034;SDS011;13809;48.632;11.576;2022-11-21T23:55:10;1.60;;;1.50;;
